createdAt,value
2023-04-08T00:00:10.989Z,101166.56
2023-04-08T00:01:14.717Z,101177.25
2023-04-08T00:02:18.572Z,101170.94
2023-04-08T00:03:23.412Z,101173.50
2023-04-08T00:04:27.320Z,101177.22
2023-04-08T00:05:31.403Z,101176.50
2023-04-08T00:06:35.219Z,101156.25
2023-04-08T00:07:39.018Z,101186.28
2023-04-08T00:08:42.772Z,101179.28
2023-04-08T00:09:48.140Z,101184.13
2023-04-08T00:10:52.300Z,101175.84
2023-04-08T00:11:55.919Z,101183.31
2023-04-08T00:12:59.682Z,101187.84
2023-04-08T00:14:05.122Z,101152.56
2023-04-08T00:15:09.358Z,101180.97
2023-04-08T00:16:13.232Z,101187.44
2023-04-08T00:17:16.980Z,101188.56
2023-04-08T00:18:20.741Z,101187.63
2023-04-08T00:19:24.514Z,101198.47
2023-04-08T00:20:31.434Z,101189.72
2023-04-08T00:21:35.224Z,101197.63
2023-04-08T00:22:38.980Z,101203.47
2023-04-08T00:23:42.652Z,101217.03
2023-04-08T00:24:48.098Z,101215.56
2023-04-08T00:25:51.839Z,101215.72
2023-04-08T00:26:55.583Z,101214.22
2023-04-08T00:27:59.335Z,101212.47
2023-04-08T00:29:03.026Z,101215.56
2023-04-08T00:30:07.900Z,101216.03
2023-04-08T00:31:11.810Z,101214.44
2023-04-08T00:32:15.618Z,101222.50
2023-04-08T00:33:19.321Z,101223.44
2023-04-08T00:34:23.069Z,101222.44
2023-04-08T00:35:26.888Z,101224.81
2023-04-08T00:36:30.637Z,101217.66
2023-04-08T00:37:34.373Z,101223.28
2023-04-08T00:38:38.059Z,101233.59
2023-04-08T00:39:41.802Z,101228.78
2023-04-08T00:40:47.357Z,101244.44
2023-04-08T00:41:50.987Z,101247.31
2023-04-08T00:42:54.790Z,101218.66
2023-04-08T00:43:58.504Z,101249.63
2023-04-08T00:45:02.610Z,101254.13
2023-04-08T00:46:06.483Z,101255.06
2023-04-08T00:47:16.665Z,101259.16
2023-04-08T00:48:20.362Z,101224.47
2023-04-08T00:49:24.037Z,101257.81
2023-04-08T00:50:40.770Z,101265.78
2023-04-08T00:51:44.629Z,101266.94
2023-04-08T00:52:48.442Z,101259.94
2023-04-08T00:53:52.186Z,101272.91
2023-04-08T00:54:56.804Z,101273.66
2023-04-08T00:56:02.175Z,101271.56
2023-04-08T00:57:06.631Z,101274.91
2023-04-08T00:58:10.571Z,101278.41
2023-04-08T00:59:14.774Z,101276.41
2023-04-08T01:00:18.667Z,101288.41
2023-04-08T01:01:33.310Z,101285.06
2023-04-08T01:02:43.804Z,101250.78
2023-04-08T01:03:57.359Z,101269.63
2023-04-08T01:05:04.938Z,101294.59
2023-04-08T01:06:14.642Z,101279.53
2023-04-08T01:07:23.098Z,101300.31
2023-04-08T01:08:34.305Z,101304.47
2023-04-08T01:09:41.648Z,101285.06
2023-04-08T01:10:52.563Z,101310.66
2023-04-08T01:12:00.187Z,101296.69
2023-04-08T01:13:06.929Z,101308.31
2023-04-08T01:14:12.923Z,101300.03
2023-04-08T01:15:17.166Z,101316.78
2023-04-08T01:16:26.198Z,101313.34
2023-04-08T01:17:44.212Z,101302.72
2023-04-08T01:18:49.363Z,101324.75
2023-04-08T01:19:55.626Z,101325.75
2023-04-08T01:21:18.969Z,101330.34
2023-04-08T01:22:30.049Z,101331.41
2023-04-08T01:23:41.928Z,101337.19
2023-04-08T01:24:46.548Z,101332.88
2023-04-08T01:25:54.879Z,101334.28
2023-04-08T01:27:01.088Z,101342.31
2023-04-08T01:28:08.359Z,101331.66
2023-04-08T01:29:13.830Z,101336.50
2023-04-08T01:30:20.083Z,101319.03
2023-04-08T01:31:26.355Z,101334.59
2023-04-08T01:32:31.737Z,101324.16
2023-04-08T01:33:36.480Z,101332.81
2023-04-08T01:34:41.523Z,101338.94
2023-04-08T01:35:46.367Z,101336.25
2023-04-08T01:36:51.529Z,101340.88
2023-04-08T01:37:56.718Z,101334.44
2023-04-08T01:39:03.708Z,101338.50
2023-04-08T01:40:10.007Z,101350.47
2023-04-08T01:41:16.439Z,101330.41
2023-04-08T01:42:20.380Z,101342.06
2023-04-08T01:43:25.539Z,101337.81
2023-04-08T01:44:30.696Z,101339.22
2023-04-08T01:45:34.372Z,101351.03
2023-04-08T01:46:40.224Z,101344.06
2023-04-08T01:47:47.887Z,101342.69
2023-04-08T01:48:52.446Z,101341.19
2023-04-08T01:49:57.289Z,101340.84
2023-04-08T01:51:02.085Z,101347.31
2023-04-08T01:52:07.582Z,101339.38
2023-04-08T01:53:12.017Z,101341.34
2023-04-08T01:54:15.846Z,101341.66
2023-04-08T01:55:19.716Z,101341.09
2023-04-08T01:56:29.225Z,101341.03
2023-04-08T01:57:35.982Z,101347.19
2023-04-08T01:58:42.761Z,101352.72
2023-04-08T01:59:49.397Z,101360.91
2023-04-08T02:00:55.363Z,101365.19
2023-04-08T02:02:00.003Z,101354.44
2023-04-08T02:03:07.231Z,101358.81
2023-04-08T02:04:11.351Z,101361.88
2023-04-08T02:05:15.779Z,101365.72
2023-04-08T02:06:19.645Z,101365.50
2023-04-08T02:07:23.823Z,101368.19
2023-04-08T02:08:27.660Z,101374.97
2023-04-08T02:09:31.656Z,101351.13
2023-04-08T02:10:35.377Z,101372.22
2023-04-08T02:11:40.694Z,101376.34
2023-04-08T02:12:45.491Z,101374.97
2023-04-08T02:13:49.341Z,101373.56
2023-04-08T02:14:54.004Z,101381.38
2023-04-08T02:16:04.422Z,101369.38
2023-04-08T02:17:12.368Z,101377.78
2023-04-08T02:18:23.468Z,101371.47
2023-04-08T02:19:31.283Z,101375.31
2023-04-08T02:20:42.039Z,101379.13
2023-04-08T02:21:49.918Z,101352.25
2023-04-08T02:23:00.658Z,101385.81
2023-04-08T02:24:09.065Z,101386.72
2023-04-08T02:25:16.577Z,101371.22
2023-04-08T02:26:22.442Z,101370.75
2023-04-08T02:27:30.468Z,101375.47
2023-04-08T02:28:36.437Z,101372.00
2023-04-08T02:29:42.774Z,101370.63
2023-04-08T02:30:50.902Z,101361.06
2023-04-08T02:31:55.643Z,101357.25
2023-04-08T02:33:01.816Z,101372.00
2023-04-08T02:34:07.838Z,101369.69
2023-04-08T02:35:13.463Z,101371.28
2023-04-08T02:36:17.842Z,101378.00
2023-04-08T02:37:21.701Z,101366.50
2023-04-08T02:38:25.523Z,101362.00
2023-04-08T02:39:38.164Z,101364.38
2023-04-08T02:40:41.923Z,101369.94
2023-04-08T02:41:45.643Z,101374.19
2023-04-08T02:42:59.343Z,101366.03
2023-04-08T02:44:03.201Z,101322.19
2023-04-08T02:45:07.966Z,101357.47
2023-04-08T02:46:12.922Z,101361.13
2023-04-08T02:47:16.681Z,101355.38
2023-04-08T02:48:20.329Z,101360.34
2023-04-08T02:49:23.976Z,101354.44
2023-04-08T02:50:27.775Z,101358.16
2023-04-08T02:51:31.456Z,101355.03
2023-04-08T02:52:35.244Z,101353.06
2023-04-08T02:53:46.086Z,101359.78
2023-04-08T02:54:49.708Z,101353.19
2023-04-08T02:55:53.494Z,101346.16
2023-04-08T02:56:57.545Z,101351.69
2023-04-08T02:58:02.930Z,101349.94
2023-04-08T02:59:06.667Z,101347.63
2023-04-08T03:00:11.668Z,101344.25
2023-04-08T03:01:15.430Z,101342.41
2023-04-08T03:02:19.218Z,101344.09
2023-04-08T03:03:23.269Z,101343.41
2023-04-08T03:04:27.055Z,101352.78
2023-04-08T03:05:30.768Z,101345.00
2023-04-08T03:06:34.486Z,101346.72
2023-04-08T03:07:38.510Z,101344.88
2023-04-08T03:08:42.311Z,101347.75
2023-04-08T03:09:46.157Z,101345.91
2023-04-08T03:10:50.223Z,101345.34
2023-04-08T03:11:54.077Z,101346.22
2023-04-08T03:12:57.751Z,101347.44
2023-04-08T03:14:03.279Z,101347.00
2023-04-08T03:15:08.041Z,101346.09
2023-04-08T03:16:16.532Z,101345.69
2023-04-08T03:17:20.277Z,101339.19
2023-04-08T03:18:24.189Z,101326.91
2023-04-08T03:19:27.878Z,101346.78
2023-04-08T03:20:31.613Z,101323.16
2023-04-08T03:21:35.343Z,101346.16
2023-04-08T03:22:39.132Z,101339.13
2023-04-08T03:23:43.069Z,101339.78
2023-04-08T03:24:46.850Z,101341.63
2023-04-08T03:25:50.555Z,101344.16
2023-04-08T03:26:54.270Z,101340.59
2023-04-08T03:27:59.096Z,101317.97
2023-04-08T03:29:04.542Z,101330.91
2023-04-08T03:30:09.412Z,101330.25
2023-04-08T03:31:13.483Z,101335.41
2023-04-08T03:32:17.286Z,101334.50
2023-04-08T03:33:21.006Z,101332.25
2023-04-08T03:34:24.726Z,101331.03
2023-04-08T03:35:28.665Z,101337.66
2023-04-08T03:36:32.495Z,101335.97
2023-04-08T03:37:36.260Z,101308.97
2023-04-08T03:38:40.107Z,101316.47
2023-04-08T03:39:43.790Z,101323.44
2023-04-08T03:40:47.537Z,101323.75
2023-04-08T03:41:51.318Z,101322.38
2023-04-08T03:42:55.030Z,101294.13
2023-04-08T03:43:59.637Z,101315.81
2023-04-08T03:45:05.456Z,101324.69
2023-04-08T03:46:09.259Z,101317.88
2023-04-08T03:47:13.465Z,101326.91
2023-04-08T03:48:17.194Z,101317.25
2023-04-08T03:49:21.022Z,101319.38
2023-04-08T03:50:24.774Z,101311.97
2023-04-08T03:51:28.589Z,101317.63
2023-04-08T03:52:32.332Z,101296.97
2023-04-08T03:53:36.115Z,101306.16
2023-04-08T03:54:39.823Z,101303.47
2023-04-08T03:55:43.574Z,101309.69
2023-04-08T03:56:47.332Z,101304.81
2023-04-08T03:57:51.132Z,101306.25
2023-04-08T03:58:54.877Z,101305.97
2023-04-08T03:59:58.677Z,101304.97
2023-04-08T04:01:04.313Z,101288.34
2023-04-08T04:02:08.171Z,101295.16
2023-04-08T04:03:12.017Z,101278.53
2023-04-08T04:04:16.122Z,101292.19
2023-04-08T04:05:20.225Z,101292.38
2023-04-08T04:06:24.055Z,101271.19
2023-04-08T04:07:27.789Z,101286.91
2023-04-08T04:08:31.529Z,101290.13
2023-04-08T04:09:35.225Z,101290.97
2023-04-08T04:10:38.966Z,101285.66
2023-04-08T04:11:42.650Z,101283.13
2023-04-08T04:12:46.506Z,101286.19
2023-04-08T04:13:50.324Z,101284.22
2023-04-08T04:14:53.959Z,101267.50
2023-04-08T04:15:57.717Z,101281.00
2023-04-08T04:17:03.104Z,101281.06
2023-04-08T04:18:06.968Z,101283.06
2023-04-08T04:19:10.737Z,101289.94
2023-04-08T04:20:14.862Z,101282.72
2023-04-08T04:21:18.532Z,101279.72
2023-04-08T04:22:22.188Z,101283.22
2023-04-08T04:23:26.028Z,101275.50
2023-04-08T04:24:29.899Z,101281.50
2023-04-08T04:25:33.662Z,101277.66
2023-04-08T04:26:37.478Z,101280.00
2023-04-08T04:27:41.202Z,101274.13
2023-04-08T04:28:45.132Z,101273.13
2023-04-08T04:29:48.919Z,101279.69
2023-04-08T04:30:53.740Z,101280.09
2023-04-08T04:31:58.433Z,101270.50
2023-04-08T04:33:03.910Z,101267.88
2023-04-08T04:34:07.727Z,101269.78
2023-04-08T04:35:11.664Z,101263.69
2023-04-08T04:36:15.524Z,101264.00
2023-04-08T04:37:19.254Z,101256.84
2023-04-08T04:38:23.995Z,101263.38
2023-04-08T04:39:28.250Z,101256.66
2023-04-08T04:40:32.004Z,101249.03
2023-04-08T04:41:35.776Z,101256.78
2023-04-08T04:42:39.442Z,101255.84
2023-04-08T04:43:43.137Z,101234.44
2023-04-08T04:44:46.865Z,101242.97
2023-04-08T04:45:50.670Z,101231.22
2023-04-08T04:46:54.611Z,101229.31
2023-04-08T04:47:58.801Z,101228.75
2023-04-08T04:49:04.252Z,101228.63
2023-04-08T04:50:09.019Z,101235.75
2023-04-08T04:51:15.523Z,101214.13
2023-04-08T04:52:19.352Z,101238.78
2023-04-08T04:53:23.129Z,101221.34
2023-04-08T04:54:26.893Z,101224.63
2023-04-08T04:55:30.594Z,101222.53
2023-04-08T04:56:34.354Z,101220.47
2023-04-08T04:57:38.155Z,101208.19
2023-04-08T04:58:42.206Z,101217.91
2023-04-08T04:59:45.972Z,101207.16
2023-04-08T05:00:49.657Z,101225.00
2023-04-08T05:01:53.775Z,101214.91
2023-04-08T05:02:57.614Z,101221.47
2023-04-08T05:04:01.560Z,101217.09
2023-04-08T05:05:07.872Z,101219.69
2023-04-08T05:06:11.622Z,101215.44
2023-04-08T05:07:15.335Z,101208.16
2023-04-08T05:08:19.138Z,101213.31
2023-04-08T05:09:22.797Z,101211.53
2023-04-08T05:10:26.610Z,101210.28
2023-04-08T05:11:30.333Z,101208.38
2023-04-08T05:12:34.047Z,101197.66
2023-04-08T05:13:37.835Z,101213.56
2023-04-08T05:14:41.664Z,101211.03
2023-04-08T05:15:45.640Z,101177.22
2023-04-08T05:16:49.452Z,101196.31
2023-04-08T05:17:53.168Z,101193.59
2023-04-08T05:18:57.133Z,101202.41
2023-04-08T05:20:00.939Z,101182.38
2023-04-08T05:21:06.554Z,101177.31
2023-04-08T05:22:10.178Z,101178.88
2023-04-08T05:23:13.914Z,101182.56
2023-04-08T05:24:17.693Z,101178.59
2023-04-08T05:25:22.105Z,101178.56
2023-04-08T05:26:25.876Z,101183.53
2023-04-08T05:27:29.670Z,101183.63
2023-04-08T05:28:33.406Z,101172.69
2023-04-08T05:29:37.134Z,101174.22
2023-04-08T05:30:40.865Z,101169.28
2023-04-08T05:31:44.622Z,101182.56
2023-04-08T05:32:48.424Z,101170.69
2023-04-08T05:33:52.131Z,101175.41
2023-04-08T05:34:55.853Z,101166.47
2023-04-08T05:35:59.571Z,101168.91
2023-04-08T05:37:04.919Z,101169.91
2023-04-08T05:38:08.715Z,101170.34
2023-04-08T05:39:12.432Z,101161.19
2023-04-08T05:40:16.360Z,101166.50
2023-04-08T05:41:20.135Z,101161.13
2023-04-08T05:42:26.091Z,101150.78
2023-04-08T05:43:29.894Z,101153.56
2023-04-08T05:44:33.622Z,101158.31
2023-04-08T05:45:37.420Z,101152.31
2023-04-08T05:46:41.256Z,101145.66
2023-04-08T05:47:45.201Z,101153.22
2023-04-08T05:48:49.307Z,101135.16
2023-04-08T05:49:53.536Z,101147.22
2023-04-08T05:50:57.287Z,101140.50
2023-04-08T05:52:01.058Z,101133.97
2023-04-08T05:53:06.461Z,101148.91
2023-04-08T05:54:10.262Z,101145.84
2023-04-08T05:55:14.489Z,101143.91
2023-04-08T05:56:18.215Z,101146.34
2023-04-08T05:57:21.885Z,101142.38
2023-04-08T05:58:25.684Z,101141.56
2023-04-08T05:59:29.396Z,101133.16
2023-04-08T06:00:33.419Z,101129.66
2023-04-08T06:01:37.345Z,101114.22
2023-04-08T06:02:41.367Z,101132.38
2023-04-08T06:03:45.386Z,101127.13
2023-04-08T06:04:49.197Z,101087.59
2023-04-08T06:05:53.022Z,101117.41
2023-04-08T06:06:59.915Z,101114.22
2023-04-08T06:08:05.728Z,101085.88
2023-04-08T06:09:09.572Z,101110.13
2023-04-08T06:10:13.346Z,101106.91
2023-04-08T06:11:17.086Z,101101.28
2023-04-08T06:12:20.858Z,101106.53
2023-04-08T06:13:25.099Z,101102.28
2023-04-08T06:14:29.322Z,101095.94
2023-04-08T06:15:33.040Z,101102.28
2023-04-08T06:16:37.275Z,101089.06
2023-04-08T06:17:41.483Z,101098.59
2023-04-08T06:18:45.320Z,101088.28
2023-04-08T06:19:49.176Z,101093.69
2023-04-08T06:20:52.952Z,101095.44
2023-04-08T06:21:56.888Z,101087.06
2023-04-08T06:23:00.776Z,101083.28
2023-04-08T06:24:07.466Z,101081.66
2023-04-08T06:25:11.430Z,101076.63
2023-04-08T06:26:17.705Z,101069.03
2023-04-08T06:27:27.673Z,101076.28
2023-04-08T06:28:31.747Z,101076.34
2023-04-08T06:29:35.688Z,101051.47
2023-04-08T06:30:39.428Z,101072.75
2023-04-08T06:31:43.332Z,101070.88
2023-04-08T06:32:47.344Z,101066.56
2023-04-08T06:33:54.324Z,101071.47
2023-04-08T06:34:58.063Z,101068.13
2023-04-08T06:36:05.327Z,101068.69
2023-04-08T06:37:09.173Z,101070.47
2023-04-08T06:38:12.971Z,101052.44
2023-04-08T06:39:19.434Z,101062.44
2023-04-08T06:40:23.301Z,101068.78
2023-04-08T06:41:27.095Z,101059.16
2023-04-08T06:42:33.909Z,101061.94
2023-04-08T06:43:38.049Z,101062.03
2023-04-08T06:44:41.853Z,101058.13
2023-04-08T06:45:45.588Z,101057.75
2023-04-08T06:46:49.405Z,101062.50
2023-04-08T06:47:53.263Z,101043.59
2023-04-08T06:48:57.264Z,101056.13
2023-04-08T06:50:01.182Z,101029.03
2023-04-08T06:51:16.833Z,101039.53
2023-04-08T06:52:23.500Z,101022.34
2023-04-08T06:53:28.184Z,101043.72
2023-04-08T06:54:35.217Z,101039.66
2023-04-08T06:55:39.049Z,101044.22
2023-04-08T06:56:42.788Z,101049.94
2023-04-08T06:57:46.659Z,101054.59
2023-04-08T06:58:50.804Z,101045.00
2023-04-08T06:59:54.869Z,101047.94
2023-04-08T07:01:00.177Z,101042.81
2023-04-08T07:02:04.296Z,101048.03
2023-04-08T07:03:08.162Z,101045.09
2023-04-08T07:04:12.221Z,101050.72
2023-04-08T07:05:16.197Z,101040.31
2023-04-08T07:06:20.050Z,101027.47
2023-04-08T07:07:23.806Z,101031.78
2023-04-08T07:08:27.548Z,101032.28
2023-04-08T07:09:32.957Z,101030.16
2023-04-08T07:10:36.838Z,101029.06
2023-04-08T07:11:40.728Z,101029.06
2023-04-08T07:12:44.592Z,101023.81
2023-04-08T07:13:48.472Z,101024.03
2023-04-08T07:14:52.217Z,101030.75
2023-04-08T07:15:56.119Z,101033.91
2023-04-08T07:17:00.113Z,101026.31
2023-04-08T07:18:04.047Z,101024.81
2023-04-08T07:19:07.895Z,101025.56
2023-04-08T07:20:12.848Z,101032.28
2023-04-08T07:21:16.811Z,101002.22
2023-04-08T07:22:20.567Z,101031.50
2023-04-08T07:23:26.012Z,101013.56
2023-04-08T07:24:29.858Z,101021.09
2023-04-08T07:25:37.389Z,100982.22
2023-04-08T07:26:41.121Z,101020.50
2023-04-08T07:27:44.873Z,101021.31
2023-04-08T07:28:48.885Z,101007.56
2023-04-08T07:29:54.615Z,101017.09
2023-04-08T07:30:58.870Z,100992.00
2023-04-08T07:32:02.776Z,100982.00
2023-04-08T07:33:06.793Z,100987.53
2023-04-08T07:34:10.760Z,100982.88
2023-04-08T07:35:14.569Z,100995.19
2023-04-08T07:36:18.282Z,100989.44
2023-04-08T07:37:22.114Z,100988.16
2023-04-08T07:38:26.353Z,100986.59
2023-04-08T07:39:30.115Z,100964.78
2023-04-08T07:40:35.648Z,100969.88
2023-04-08T07:41:39.367Z,100969.25
2023-04-08T07:42:43.091Z,100968.69
2023-04-08T07:43:46.769Z,100969.63
2023-04-08T07:44:50.463Z,100945.47
2023-04-08T07:45:54.196Z,100957.78
2023-04-08T07:46:57.941Z,100944.88
2023-04-08T07:48:01.718Z,100947.38
2023-04-08T07:49:05.547Z,100932.59
2023-04-08T07:50:09.964Z,100942.72
2023-04-08T07:51:13.953Z,100933.03
2023-04-08T07:52:17.898Z,100917.00
2023-04-08T07:53:23.454Z,100924.47
2023-04-08T07:54:27.790Z,100925.72
2023-04-08T07:55:36.862Z,100925.59
2023-04-08T07:56:40.625Z,100918.88
2023-04-08T07:57:44.429Z,100925.31
2023-04-08T07:58:50.032Z,100917.34
2023-04-08T07:59:55.072Z,100918.56
2023-04-08T08:00:59.046Z,100906.91
2023-04-08T08:02:02.899Z,100911.78
2023-04-08T08:03:06.884Z,100898.59
2023-04-08T08:04:10.904Z,100868.63
2023-04-08T08:05:14.905Z,100921.00
2023-04-08T08:06:18.804Z,100910.69
2023-04-08T08:07:22.619Z,100915.72
2023-04-08T08:08:26.363Z,100926.91
2023-04-08T08:09:32.000Z,100928.03
2023-04-08T08:10:37.648Z,100925.13
2023-04-08T08:11:41.419Z,100927.63
2023-04-08T08:12:45.335Z,100925.88
2023-04-08T08:13:49.309Z,100926.38
2023-04-08T08:14:53.127Z,100918.81
2023-04-08T08:15:56.909Z,100911.06
2023-04-08T08:17:00.626Z,100881.25
2023-04-08T08:18:04.529Z,100892.34
2023-04-08T08:19:08.326Z,100894.56
2023-04-08T08:20:12.742Z,100902.94
2023-04-08T08:21:16.478Z,100885.59
2023-04-08T08:22:20.234Z,100875.38
2023-04-08T08:23:23.935Z,100894.81
2023-04-08T08:24:27.698Z,100872.22
2023-04-08T08:25:31.467Z,100874.50
2023-04-08T08:26:38.274Z,100869.22
2023-04-08T08:27:42.013Z,100862.06
2023-04-08T08:28:45.736Z,100860.44
2023-04-08T08:29:49.648Z,100866.94
2023-04-08T08:30:53.371Z,100877.00
2023-04-08T08:31:57.153Z,100883.63
2023-04-08T08:33:00.910Z,100884.91
2023-04-08T08:34:04.608Z,100892.34
2023-04-08T08:35:08.944Z,100877.84
2023-04-08T08:36:12.830Z,100883.06
2023-04-08T08:37:16.534Z,100880.69
2023-04-08T08:38:20.385Z,100894.03
2023-04-08T08:39:24.118Z,100892.41
2023-04-08T08:40:27.882Z,100904.28
2023-04-08T08:41:35.313Z,100912.75
2023-04-08T08:42:41.063Z,100900.88
2023-04-08T08:43:45.392Z,100893.19
2023-04-08T08:44:49.405Z,100887.34
2023-04-08T08:45:53.287Z,100876.13
2023-04-08T08:46:57.164Z,100867.63
2023-04-08T08:48:01.264Z,100865.22
2023-04-08T08:49:05.216Z,100863.78
2023-04-08T08:50:09.433Z,100861.03
2023-04-08T08:51:14.184Z,100862.53
2023-04-08T08:52:18.166Z,100863.34
2023-04-08T08:53:21.840Z,100854.16
2023-04-08T08:54:26.072Z,100839.81
2023-04-08T08:55:56.755Z,100847.75
2023-04-08T08:56:56.239Z,100841.78
2023-04-08T08:58:02.072Z,100842.16
2023-04-08T08:59:05.874Z,100845.72
2023-04-08T09:00:10.806Z,100850.41
2023-04-08T09:01:33.372Z,100860.56
2023-04-08T09:02:37.551Z,100833.59
2023-04-08T09:03:42.474Z,100818.69
2023-04-08T09:04:58.661Z,100844.38
2023-04-08T09:06:03.265Z,100855.72
2023-04-08T09:07:11.386Z,100857.06
2023-04-08T09:08:25.838Z,100858.91
2023-04-08T09:09:29.556Z,100858.53
2023-04-08T09:10:33.440Z,100854.22
2023-04-08T09:11:37.727Z,100863.06
2023-04-08T09:12:56.407Z,100863.84
2023-04-08T09:14:01.989Z,100861.03
2023-04-08T09:15:06.810Z,100850.22
2023-04-08T09:16:11.778Z,100846.22
2023-04-08T09:17:33.203Z,100826.16
2023-04-08T09:18:38.477Z,100845.03
2023-04-08T09:20:06.171Z,100841.88
2023-04-08T09:21:11.011Z,100860.53
2023-04-08T09:22:14.825Z,100867.59
2023-04-08T09:23:18.704Z,100868.75
2023-04-08T09:24:32.203Z,100870.59
2023-04-08T09:25:36.804Z,100864.28
2023-04-08T09:26:40.611Z,100864.38
2023-04-08T09:27:44.220Z,100863.28
2023-04-08T09:29:08.470Z,100867.16
2023-04-08T09:30:18.607Z,100880.47
2023-04-08T09:31:23.920Z,100877.25
2023-04-08T09:32:51.168Z,100886.06
2023-04-08T09:33:56.555Z,100876.06
2023-04-08T09:35:01.035Z,100881.88
2023-04-08T09:36:04.970Z,100887.84
2023-04-08T09:37:08.627Z,100890.78
2023-04-08T09:38:12.398Z,100868.41
2023-04-08T09:39:16.457Z,100895.06
2023-04-08T09:40:20.433Z,100889.47
2023-04-08T09:41:29.987Z,100904.41
2023-04-08T09:42:35.447Z,100894.84
2023-04-08T09:43:44.322Z,100898.88
2023-04-08T09:44:50.112Z,100897.94
2023-04-08T09:45:54.233Z,100903.38
2023-04-08T09:47:06.986Z,100891.78
2023-04-08T09:48:16.496Z,100902.75
2023-04-08T09:49:27.338Z,100909.34
2023-04-08T09:50:34.164Z,100907.69
2023-04-08T09:51:48.566Z,100910.25
2023-04-08T09:52:58.113Z,100926.59
2023-04-08T09:54:04.538Z,100918.84
2023-04-08T09:55:13.232Z,100929.81
2023-04-08T09:56:18.429Z,100937.28
2023-04-08T09:57:29.872Z,100931.34
2023-04-08T09:58:40.346Z,100934.63
2023-04-08T09:59:53.334Z,100932.03
2023-04-08T10:00:57.573Z,100939.66
2023-04-08T10:02:05.693Z,100936.59
2023-04-08T10:03:16.018Z,100936.25
2023-04-08T10:04:23.626Z,100936.34
2023-04-08T10:05:28.165Z,100933.34
2023-04-08T10:06:34.583Z,100949.53
2023-04-08T10:07:38.671Z,100920.72
2023-04-08T10:08:43.079Z,100938.59
2023-04-08T10:09:47.120Z,100925.75
2023-04-08T10:10:51.264Z,100943.16
2023-04-08T10:11:56.287Z,100939.19
2023-04-08T10:13:00.303Z,100927.25
2023-04-08T10:14:04.200Z,100945.34
2023-04-08T10:15:31.576Z,100941.19
2023-04-08T10:16:35.444Z,100945.50
2023-04-08T10:17:39.411Z,100936.53
2023-04-08T10:18:43.426Z,100937.81
2023-04-08T10:19:47.229Z,100924.94
2023-04-08T10:20:51.049Z,100907.13
2023-04-08T10:21:54.859Z,100922.28
2023-04-08T10:22:58.616Z,100932.50
2023-04-08T10:24:02.933Z,100934.41
2023-04-08T10:25:31.925Z,100945.28
2023-04-08T10:26:40.606Z,100913.78
2023-04-08T10:27:45.180Z,100926.28
2023-04-08T10:28:48.920Z,100940.28
2023-04-08T10:29:52.689Z,100935.13
2023-04-08T10:30:58.934Z,100935.91
2023-04-08T10:32:03.061Z,100872.59
2023-04-08T10:33:12.325Z,100906.59
2023-04-08T10:34:19.892Z,100923.84
2023-04-08T10:35:30.601Z,100928.50
2023-04-08T10:36:34.555Z,100933.31
2023-04-08T10:37:38.511Z,100934.13
2023-04-08T10:38:42.597Z,100951.03
2023-04-08T10:39:51.216Z,100941.81
2023-04-08T10:40:57.580Z,100943.78
2023-04-08T10:42:03.208Z,100924.03
2023-04-08T10:43:06.995Z,100937.94
2023-04-08T10:44:17.410Z,100922.38
2023-04-08T10:45:21.160Z,100926.97
2023-04-08T10:46:28.958Z,100915.13
2023-04-08T10:47:32.839Z,100916.31
2023-04-08T10:48:44.080Z,100909.66
2023-04-08T10:49:47.902Z,100920.88
2023-04-08T10:50:55.210Z,100923.34
2023-04-08T10:51:58.938Z,100913.88
2023-04-08T10:53:02.693Z,100919.59
2023-04-08T10:54:10.322Z,100920.66
2023-04-08T10:55:17.130Z,100878.94
2023-04-08T10:56:21.200Z,100917.72
2023-04-08T10:57:28.598Z,100926.63
2023-04-08T10:58:32.427Z,100905.41
2023-04-08T10:59:36.170Z,100921.47
2023-04-08T11:00:41.008Z,100929.41
2023-04-08T11:01:47.436Z,100917.97
2023-04-08T11:02:51.938Z,100932.53
2023-04-08T11:03:56.306Z,100932.72
2023-04-08T11:05:05.730Z,100935.19
2023-04-08T11:06:09.662Z,100936.41
2023-04-08T11:07:13.600Z,100935.50
2023-04-08T11:08:18.931Z,100934.09
2023-04-08T11:09:24.272Z,100912.91
2023-04-08T11:10:28.730Z,100930.97
2023-04-08T11:11:34.200Z,100924.22
2023-04-08T11:12:40.877Z,100920.69
2023-04-08T11:13:53.388Z,100916.81
2023-04-08T11:14:58.462Z,100918.34
2023-04-08T11:16:16.499Z,100910.63
2023-04-08T11:17:23.338Z,100912.78
2023-04-08T11:18:27.131Z,100906.69
2023-04-08T11:19:30.960Z,100914.03
2023-04-08T11:20:35.080Z,100922.19
2023-04-08T11:21:39.067Z,100929.91
2023-04-08T11:22:42.921Z,100921.75
2023-04-08T11:23:50.456Z,100925.38
2023-04-08T11:24:54.905Z,100920.72
2023-04-08T11:25:59.366Z,100930.41
2023-04-08T11:27:03.452Z,100934.53
2023-04-08T11:28:07.865Z,100931.97
2023-04-08T11:29:12.994Z,100930.13
2023-04-08T11:30:16.930Z,100929.66
2023-04-08T11:31:24.105Z,100912.72
2023-04-08T11:32:30.654Z,100922.69
2023-04-08T11:33:35.273Z,100908.44
2023-04-08T11:34:43.188Z,100917.53
2023-04-08T11:35:48.504Z,100913.56
2023-04-08T11:36:57.029Z,100905.94
2023-04-08T11:38:00.839Z,100908.66
2023-04-08T11:39:09.945Z,100912.78
2023-04-08T11:40:14.392Z,100908.72
2023-04-08T11:41:18.140Z,100908.00
2023-04-08T11:42:31.583Z,100911.06
2023-04-08T11:43:35.429Z,100907.59
2023-04-08T11:44:39.102Z,100902.56
2023-04-08T11:45:44.592Z,100902.13
2023-04-08T11:46:54.484Z,100900.44
2023-04-08T11:48:00.099Z,100891.38
2023-04-08T11:49:06.410Z,100899.28
2023-04-08T11:50:11.395Z,100921.31
2023-04-08T11:51:15.178Z,100910.88
2023-04-08T11:52:19.076Z,100900.09
2023-04-08T11:53:25.837Z,100927.25
2023-04-08T11:54:30.288Z,100938.00
2023-04-08T11:55:34.708Z,100918.53
2023-04-08T11:56:47.815Z,100919.34
2023-04-08T11:57:51.705Z,100921.88
2023-04-08T11:58:55.393Z,100950.69
2023-04-08T11:59:59.243Z,100951.16
2023-04-08T12:01:03.392Z,100949.53
2023-04-08T12:02:07.525Z,100963.50
2023-04-08T12:03:13.630Z,100955.28
2023-04-08T12:04:20.623Z,100965.47
2023-04-08T12:05:24.573Z,100966.44
2023-04-08T12:06:29.260Z,100921.13
2023-04-08T12:07:32.993Z,100968.34
2023-04-08T12:08:36.702Z,100968.13
2023-04-08T12:09:40.309Z,100972.50
2023-04-08T12:10:44.037Z,100977.91
2023-04-08T12:11:47.661Z,100979.50
2023-04-08T12:12:51.649Z,100984.22
2023-04-08T12:13:55.356Z,100984.09
2023-04-08T12:14:59.053Z,101003.56
2023-04-08T12:16:02.782Z,100998.75
2023-04-08T12:17:06.498Z,100992.97
2023-04-08T12:18:11.905Z,101010.44
2023-04-08T12:19:15.608Z,101017.69
2023-04-08T12:20:19.551Z,101008.50
2023-04-08T12:21:23.250Z,101021.97
2023-04-08T12:22:26.957Z,101022.66
2023-04-08T12:23:30.730Z,101022.19
2023-04-08T12:24:34.653Z,101017.47